createdAt,value
2023-05-08T00:04:46.212Z,3.60
2023-05-08T00:14:48.285Z,4.10
2023-05-08T00:24:50.839Z,4.00
2023-05-08T00:34:54.921Z,3.00
2023-05-08T00:44:57.166Z,4.50
2023-05-08T00:55:02.232Z,4.17
2023-05-08T01:05:09.641Z,4.80
2023-05-08T01:15:17.867Z,5.13
2023-05-08T01:25:41.345Z,5.60
2023-05-08T01:35:54.435Z,4.33
2023-05-08T01:46:05.780Z,3.47
2023-05-08T01:56:18.636Z,3.47
2023-05-08T02:06:22.660Z,3.73
2023-05-08T02:16:32.099Z,2.50
2023-05-08T02:26:37.358Z,4.50
2023-05-08T02:36:43.444Z,4.47
2023-05-08T02:47:13.727Z,5.87
2023-05-08T02:57:58.435Z,3.97
2023-05-08T03:08:04.078Z,5.17
2023-05-08T03:18:12.092Z,6.07
2023-05-08T03:28:15.170Z,5.03
2023-05-08T03:38:20.317Z,4.93
2023-05-08T03:48:24.187Z,5.00
2023-05-08T03:58:54.878Z,4.50
2023-05-08T04:09:12.219Z,3.87
2023-05-08T04:19:21.250Z,3.30
2023-05-08T04:29:26.121Z,3.20
2023-05-08T04:39:30.547Z,5.13
2023-05-08T04:49:36.635Z,4.68
2023-05-08T04:59:41.922Z,3.30
2023-05-08T05:09:49.085Z,2.17
2023-05-08T05:19:54.560Z,2.85
2023-05-08T05:29:57.843Z,2.47
2023-05-08T05:40:03.744Z,2.50
2023-05-08T05:50:10.834Z,2.67
2023-05-08T06:00:13.545Z,2.38
2023-05-08T06:10:23.612Z,2.30
2023-05-08T06:20:33.245Z,2.42
2023-05-08T06:30:36.082Z,2.50
2023-05-08T06:40:46.163Z,2.05
2023-05-08T06:50:52.035Z,1.88
2023-05-08T07:00:59.876Z,2.45
2023-05-08T07:11:01.963Z,1.83
2023-05-08T07:21:07.412Z,1.52
2023-05-08T07:31:15.192Z,2.10
2023-05-08T07:41:20.913Z,1.98
2023-05-08T07:51:25.537Z,2.00
2023-05-08T08:01:30.130Z,1.90
2023-05-08T08:11:32.295Z,1.92
2023-05-08T08:21:44.875Z,1.92
2023-05-08T08:31:49.261Z,2.25
2023-05-08T08:41:51.428Z,2.17
2023-05-08T08:51:56.654Z,2.28
2023-05-08T09:02:07.444Z,2.13
2023-05-08T09:12:15.881Z,2.10
2023-05-08T09:22:17.994Z,1.88
2023-05-08T09:32:23.352Z,2.80
2023-05-08T09:42:26.273Z,2.17
2023-05-08T09:52:31.743Z,2.15
2023-05-08T10:02:34.482Z,1.73
2023-05-08T10:12:42.732Z,2.20
2023-05-08T10:22:49.353Z,1.90
2023-05-08T10:32:59.816Z,2.25
2023-05-08T10:43:06.014Z,2.28
2023-05-08T10:53:20.439Z,2.13
2023-05-08T11:03:32.854Z,1.98
2023-05-08T11:13:43.385Z,2.10
2023-05-08T11:23:59.407Z,2.00
2023-05-08T11:34:01.544Z,1.90
2023-05-08T11:44:08.023Z,1.75
2023-05-08T11:54:13.814Z,2.35
2023-05-08T12:04:23.037Z,1.88
2023-05-08T12:14:30.076Z,2.28
2023-05-08T12:24:39.356Z,1.75
2023-05-08T12:34:46.242Z,1.65
2023-05-08T12:44:53.837Z,2.33
2023-05-08T12:55:00.496Z,1.95
2023-05-08T13:05:06.089Z,2.05
2023-05-08T13:15:11.386Z,2.20
2023-05-08T13:25:14.026Z,2.22
2023-05-08T13:35:16.691Z,1.85
2023-05-08T13:45:19.027Z,2.08
2023-05-08T13:55:23.703Z,2.10
2023-05-08T14:05:25.864Z,1.90
2023-05-08T14:15:36.954Z,1.77
2023-05-08T14:25:41.089Z,1.95
2023-05-08T14:35:48.953Z,2.47
2023-05-08T14:45:51.160Z,1.63
2023-05-08T14:56:02.523Z,2.00
2023-05-08T15:06:06.554Z,2.22
2023-05-08T15:16:09.016Z,1.70
2023-05-08T15:26:11.824Z,2.00
2023-05-08T15:36:14.393Z,1.60
2023-05-08T15:46:19.143Z,2.40
2023-05-08T15:56:26.014Z,1.92
2023-05-08T16:06:28.135Z,2.13
2023-05-08T16:16:38.041Z,1.92
2023-05-08T16:26:43.074Z,1.98
2023-05-08T16:36:45.904Z,1.75
2023-05-08T16:46:49.628Z,2.53
2023-05-08T16:56:56.620Z,2.38
2023-05-08T17:07:00.258Z,2.35
2023-05-08T17:17:08.310Z,2.42
2023-05-08T17:27:13.396Z,2.55
2023-05-08T17:37:15.645Z,2.22
2023-05-08T17:47:17.835Z,2.38
2023-05-08T17:57:20.033Z,3.20
2023-05-08T18:07:23.827Z,2.60
2023-05-08T18:17:31.154Z,2.50
2023-05-08T18:27:35.938Z,2.95
2023-05-08T18:37:38.232Z,2.75
2023-05-08T18:47:40.492Z,3.28
2023-05-08T18:57:45.240Z,2.92
2023-05-08T19:07:55.397Z,3.55
2023-05-08T19:17:57.692Z,3.10
2023-05-08T19:27:59.949Z,2.65
2023-05-08T19:38:04.603Z,2.90
2023-05-08T19:48:17.318Z,3.28
2023-05-08T19:58:20.305Z,2.83
2023-05-08T20:08:27.294Z,3.47
2023-05-08T20:18:29.665Z,3.17
2023-05-08T20:28:35.220Z,2.92
2023-05-08T20:38:42.535Z,2.67
2023-05-08T20:48:48.533Z,2.95
2023-05-08T20:58:50.550Z,3.33
2023-05-08T21:08:55.364Z,3.07
2023-05-08T21:19:07.106Z,3.47
2023-05-08T21:29:12.648Z,3.43
2023-05-08T21:39:17.778Z,3.38
2023-05-08T21:49:19.860Z,3.40
2023-05-08T21:59:27.435Z,3.28
2023-05-08T22:09:32.166Z,3.60
2023-05-08T22:19:35.302Z,4.30
2023-05-08T22:29:37.544Z,5.20
2023-05-08T22:39:39.688Z,4.30
2023-05-08T22:49:44.805Z,4.68
2023-05-08T22:59:49.046Z,4.47
2023-05-08T23:09:51.095Z,5.37
2023-05-08T23:19:53.220Z,7.23
2023-05-08T23:30:01.685Z,5.20
2023-05-08T23:40:04.182Z,6.87
2023-05-08T23:50:09.060Z,6.23
